Time;durP1;ratioP1;P1;durP2;ratioP2;P2;SDS_P1;SDS_P2;PMS_P1;PMS_P2;Temp;Humidity;BMP_temperature;BMP_pressure;BME280_temperature;BME280_humidity;BME280_pressure;Samples;Min_cycle;Max_cycle;Signal;HPM_P1;HPM_P2
2022/03/08 00:00:40;;;;;;;6.22;4.50;;;;;;;;;;5056781;28;20044;-58
2022/03/08 00:03:06;;;;;;;4.68;3.60;;;;;;;;;;5057232;28;20041;-59
2022/03/08 00:05:31;;;;;;;4.97;3.42;;;;;;;;;;5059790;28;20062;-59
2022/03/08 00:07:57;;;;;;;7.78;4.32;;;;;;;;;;5056555;28;20114;-59
2022/03/08 00:10:23;;;;;;;5.75;4.32;;;;;;;;;;5045442;28;20158;-59
2022/03/08 00:12:48;;;;;;;5.22;4.03;;;;;;;;;;5045373;28;20314;-59
2022/03/08 00:15:18;;;;;;;6.45;4.05;;;;;;;;;;5050657;28;20052;-60
2022/03/08 00:17:43;;;;;;;5.30;3.97;;;;;;;;;;5062639;28;20075;-59
2022/03/08 00:20:09;;;;;;;6.13;4.03;;;;;;;;;;5043305;28;20245;-59
2022/03/08 00:22:36;;;;;;;4.85;4.10;;;;;;;;;;5059154;28;20032;-59
2022/03/08 00:25:02;;;;;;;7.22;4.32;;;;;;;;;;5059202;28;20474;-59
2022/03/08 00:27:29;;;;;;;5.82;3.97;;;;;;;;;;5058150;28;20253;-59
2022/03/08 00:29:55;;;;;;;5.00;4.07;;;;;;;;;;5054113;28;20020;-59
2022/03/08 00:32:20;;;;;;;4.40;3.85;;;;;;;;;;5053308;28;20056;-59
2022/03/08 00:34:46;;;;;;;4.82;3.92;;;;;;;;;;5044753;28;20017;-58
2022/03/08 00:37:11;;;;;;;7.05;4.18;;;;;;;;;;5045756;28;20079;-59
2022/03/08 00:39:36;;;;;;;6.25;4.07;;;;;;;;;;5059322;28;20060;-59
2022/03/08 00:42:02;;;;;;;6.20;4.57;;;;;;;;;;5061244;28;20036;-60
2022/03/08 00:44:27;;;;;;;5.43;4.07;;;;;;;;;;5061100;28;20021;-59
2022/03/08 00:46:53;;;;;;;6.68;4.53;;;;;;;;;;5058979;28;20048;-60
2022/03/08 00:49:18;;;;;;;5.97;4.35;;;;;;;;;;5058798;28;20155;-60
2022/03/08 00:51:44;;;;;;;7.45;4.57;;;;;;;;;;5058782;28;20036;-59
2022/03/08 00:54:09;;;;;;;6.80;4.80;;;;;;;;;;5045353;28;20361;-59
2022/03/08 00:56:34;;;;;;;6.35;4.38;;;;;;;;;;5049633;28;20310;-60
2022/03/08 00:59:00;;;;;;;7.50;4.68;;;;;;;;;;5056060;28;20013;-60
2022/03/08 01:01:25;;;;;;;5.50;4.50;;;;;;;;;;5056678;28;20021;-60
2022/03/08 01:03:51;;;;;;;5.90;4.65;;;;;;;;;;5042119;28;20045;-59
2022/03/08 01:06:16;;;;;;;6.75;4.55;;;;;;;;;;5060924;28;20278;-59
2022/03/08 01:08:41;;;;;;;4.57;4.00;;;;;;;;;;5054357;28;20306;-60
2022/03/08 01:11:07;;;;;;;5.13;4.03;;;;;;;;;;5043493;28;20040;-59
2022/03/08 01:13:32;;;;;;;6.90;4.22;;;;;;;;;;5055465;28;20436;-60
2022/03/08 01:15:57;;;;;;;10.63;4.80;;;;;;;;;;5058207;28;20041;-59
2022/03/08 01:18:23;;;;;;;5.40;4.45;;;;;;;;;;5058044;28;20139;-59
2022/03/08 01:20:48;;;;;;;6.05;4.15;;;;;;;;;;5058301;28;20012;-59
2022/03/08 01:23:14;;;;;;;6.80;4.20;;;;;;;;;;5056965;28;20104;-59
2022/03/08 01:25:40;;;;;;;6.40;4.78;;;;;;;;;;5044064;28;20013;-59
2022/03/08 01:28:06;;;;;;;6.55;4.03;;;;;;;;;;5059074;28;20021;-59
2022/03/08 01:30:32;;;;;;;8.38;5.13;;;;;;;;;;5060373;28;20024;-59
2022/03/08 01:32:58;;;;;;;4.55;3.90;;;;;;;;;;5043892;28;20041;-60
2022/03/08 01:35:24;;;;;;;5.82;4.15;;;;;;;;;;5057127;28;20024;-59
2022/03/08 01:37:49;;;;;;;5.50;4.60;;;;;;;;;;5048052;28;20022;-59
2022/03/08 01:40:15;;;;;;;7.40;4.40;;;;;;;;;;5052546;28;20076;-59
2022/03/08 01:42:42;;;;;;;6.85;4.18;;;;;;;;;;5057626;28;20086;-59
2022/03/08 01:45:07;;;;;;;5.80;4.35;;;;;;;;;;5053132;28;20014;-59
2022/03/08 01:47:33;;;;;;;6.40;4.63;;;;;;;;;;5044741;28;20020;-59
2022/03/08 01:49:58;;;;;;;5.53;4.10;;;;;;;;;;5057710;28;20309;-60
2022/03/08 01:52:24;;;;;;;6.90;4.38;;;;;;;;;;5057708;28;20056;-59
2022/03/08 01:54:50;;;;;;;5.53;4.40;;;;;;;;;;5057592;28;20024;-59
2022/03/08 01:57:16;;;;;;;5.60;4.38;;;;;;;;;;5059722;28;20033;-60
2022/03/08 01:59:42;;;;;;;6.53;5.07;;;;;;;;;;5043819;28;20199;-60
2022/03/08 02:02:08;;;;;;;6.15;4.10;;;;;;;;;;5043234;28;20163;-59
2022/03/08 02:04:34;;;;;;;7.57;4.35;;;;;;;;;;5052446;28;20024;-59
2022/03/08 02:07:00;;;;;;;5.43;4.00;;;;;;;;;;5050664;28;20085;-59
2022/03/08 02:09:25;;;;;;;5.95;4.22;;;;;;;;;;5043525;28;20020;-58
2022/03/08 02:11:50;;;;;;;6.07;4.03;;;;;;;;;;5057534;28;20017;-59
2022/03/08 02:14:16;;;;;;;5.30;4.30;;;;;;;;;;5057309;28;20009;-59
2022/03/08 02:16:42;;;;;;;6.43;4.55;;;;;;;;;;5058711;28;20037;-59
2022/03/08 02:19:10;;;;;;;5.15;4.15;;;;;;;;;;5058942;28;20027;-59
2022/03/08 02:21:35;;;;;;;8.90;4.72;;;;;;;;;;5058721;28;20021;-59
2022/03/08 02:24:01;;;;;;;6.15;4.18;;;;;;;;;;5043109;28;20022;-59
2022/03/08 02:26:26;;;;;;;4.63;4.10;;;;;;;;;;5058750;28;20126;-60
2022/03/08 02:28:52;;;;;;;5.65;4.05;;;;;;;;;;5051992;28;20029;-60
2022/03/08 02:31:36;;;;;;;6.10;3.97;;;;;;;;;;5046096;28;20397;-59
2022/03/08 02:34:02;;;;;;;5.85;4.18;;;;;;;;;;5046975;28;20009;-59
2022/03/08 02:36:27;;;;;;;6.53;4.20;;;;;;;;;;5047095;28;20066;-59
2022/03/08 02:38:53;;;;;;;7.63;4.18;;;;;;;;;;5049604;28;20009;-59
2022/03/08 02:41:18;;;;;;;5.22;3.92;;;;;;;;;;5059732;28;20314;-59
2022/03/08 02:43:44;;;;;;;6.55;4.40;;;;;;;;;;5044623;28;20022;-59
2022/03/08 02:46:09;;;;;;;6.80;4.47;;;;;;;;;;5063529;28;20134;-59
2022/03/08 02:48:35;;;;;;;8.35;4.50;;;;;;;;;;5062867;28;20235;-59
2022/03/08 02:51:00;;;;;;;7.07;4.88;;;;;;;;;;5060913;28;20184;-59
2022/03/08 02:53:26;;;;;;;8.43;4.45;;;;;;;;;;5058350;28;20032;-59
2022/03/08 02:55:51;;;;;;;5.72;3.88;;;;;;;;;;5051680;28;20033;-59
2022/03/08 02:58:17;;;;;;;6.57;4.88;;;;;;;;;;5053460;28;20031;-59
2022/03/08 03:00:42;;;;;;;5.65;4.28;;;;;;;;;;5051704;28;20020;-59
2022/03/08 03:03:08;;;;;;;6.90;4.80;;;;;;;;;;5060494;28;20057;-59
2022/03/08 03:05:34;;;;;;;6.93;4.75;;;;;;;;;;5060946;28;20025;-59
2022/03/08 03:08:00;;;;;;;5.60;4.18;;;;;;;;;;5058662;28;20022;-60
2022/03/08 03:10:26;;;;;;;8.65;4.50;;;;;;;;;;5044496;28;20234;-59
2022/03/08 03:12:52;;;;;;;6.25;4.47;;;;;;;;;;5060937;28;20408;-59
2022/03/08 03:15:18;;;;;;;6.57;4.72;;;;;;;;;;5045778;28;20214;-60
2022/03/08 03:17:44;;;;;;;5.50;4.32;;;;;;;;;;5045522;28;20031;-59
2022/03/08 03:20:11;;;;;;;7.78;4.85;;;;;;;;;;5045006;28;20013;-59
2022/03/08 03:22:36;;;;;;;6.68;4.82;;;;;;;;;;5046073;28;20048;-59
2022/03/08 03:25:03;;;;;;;6.45;4.63;;;;;;;;;;5044493;28;20067;-59
2022/03/08 03:27:29;;;;;;;7.63;4.32;;;;;;;;;;5048510;28;20294;-59
2022/03/08 03:29:55;;;;;;;6.53;4.88;;;;;;;;;;5048248;28;20024;-59
2022/03/08 03:32:22;;;;;;;6.55;4.78;;;;;;;;;;5044882;28;20334;-59
2022/03/08 03:34:48;;;;;;;5.85;4.53;;;;;;;;;;5061926;28;20035;-59
2022/03/08 03:37:13;;;;;;;6.80;4.75;;;;;;;;;;5058768;28;20030;-59
2022/03/08 03:39:38;;;;;;;6.93;4.45;;;;;;;;;;5059736;28;20036;-60
2022/03/08 03:42:04;;;;;;;6.65;4.95;;;;;;;;;;5059813;28;20367;-60
2022/03/08 03:44:29;;;;;;;5.60;4.80;;;;;;;;;;5058408;28;20028;-59
2022/03/08 03:46:55;;;;;;;6.78;4.68;;;;;;;;;;5059885;28;20013;-59
2022/03/08 03:49:20;;;;;;;6.90;5.00;;;;;;;;;;5057499;28;20367;-60
2022/03/08 03:51:47;;;;;;;5.97;4.78;;;;;;;;;;5057513;28;20034;-60
2022/03/08 03:54:12;;;;;;;7.18;5.00;;;;;;;;;;5045679;28;20058;-59
2022/03/08 03:56:38;;;;;;;6.88;4.88;;;;;;;;;;5044278;28;20048;-58
2022/03/08 03:59:03;;;;;;;6.45;4.90;;;;;;;;;;5058537;28;20022;-58
2022/03/08 04:01:28;;;;;;;7.72;5.60;;;;;;;;;;5060721;28;20080;-58
2022/03/08 04:03:54;;;;;;;6.93;5.30;;;;;;;;;;5059586;28;20108;-59
2022/03/08 04:06:19;;;;;;;7.28;5.15;;;;;;;;;;5048461;28;20026;-58
2022/03/08 04:08:45;;;;;;;6.57;5.07;;;;;;;;;;5044415;28;20040;-59
2022/03/08 04:11:10;;;;;;;7.43;4.93;;;;;;;;;;5051956;28;20021;-58
2022/03/08 04:13:35;;;;;;;7.30;4.70;;;;;;;;;;5054090;28;20056;-59
2022/03/08 04:16:01;;;;;;;7.90;5.30;;;;;;;;;;5059396;28;20013;-60
2022/03/08 04:18:26;;;;;;;7.30;4.85;;;;;;;;;;5058378;28;20049;-59
2022/03/08 04:20:51;;;;;;;6.40;5.00;;;;;;;;;;5044143;28;20191;-61
2022/03/08 04:23:17;;;;;;;8.23;4.93;;;;;;;;;;5060403;28;20052;-58
2022/03/08 04:25:42;;;;;;;7.22;5.57;;;;;;;;;;5060243;28;20040;-58
2022/03/08 04:28:08;;;;;;;7.32;5.10;;;;;;;;;;5044891;28;20022;-58
2022/03/08 04:30:33;;;;;;;6.20;4.72;;;;;;;;;;5055339;28;20084;-59
2022/03/08 04:32:58;;;;;;;8.30;4.82;;;;;;;;;;5051369;28;20021;-59
2022/03/08 04:35:24;;;;;;;6.03;4.75;;;;;;;;;;5050710;28;20231;-59
2022/03/08 04:37:49;;;;;;;7.28;4.82;;;;;;;;;;5055150;28;20056;-59
2022/03/08 04:40:15;;;;;;;6.63;5.07;;;;;;;;;;5044889;28;20024;-59
2022/03/08 04:42:41;;;;;;;7.25;5.00;;;;;;;;;;5043597;28;20021;-59
2022/03/08 04:45:08;;;;;;;6.93;4.82;;;;;;;;;;5058367;28;20056;-59
2022/03/08 04:47:35;;;;;;;7.10;4.90;;;;;;;;;;5060446;28;20032;-59
2022/03/08 04:50:02;;;;;;;5.85;4.75;;;;;;;;;;5059949;28;20119;-59
2022/03/08 04:52:28;;;;;;;8.38;5.10;;;;;;;;;;5045299;28;20104;-59
2022/03/08 04:54:53;;;;;;;7.35;5.07;;;;;;;;;;5044248;28;20318;-60
2022/03/08 04:57:18;;;;;;;6.18;4.65;;;;;;;;;;5044531;28;20060;-59
2022/03/08 04:59:44;;;;;;;5.85;4.40;;;;;;;;;;5043455;28;20303;-60
2022/03/08 05:02:09;;;;;;;6.43;4.50;;;;;;;;;;5043307;28;20106;-60
2022/03/08 05:04:34;;;;;;;5.63;4.43;;;;;;;;;;5045130;28;20352;-59
2022/03/08 05:07:00;;;;;;;6.57;4.72;;;;;;;;;;5058353;28;20013;-58
2022/03/08 05:09:25;;;;;;;5.97;4.53;;;;;;;;;;5044450;28;20396;-59
2022/03/08 05:11:50;;;;;;;7.80;4.72;;;;;;;;;;5059396;28;20210;-61
2022/03/08 05:14:16;;;;;;;6.35;4.10;;;;;;;;;;5043941;28;20021;-59
2022/03/08 05:16:41;;;;;;;6.38;4.38;;;;;;;;;;5044019;28;20344;-60
2022/03/08 05:19:06;;;;;;;6.53;4.45;;;;;;;;;;5054170;28;20025;-60
2022/03/08 05:21:32;;;;;;;6.43;4.38;;;;;;;;;;5048827;28;20083;-60
2022/03/08 05:23:57;;;;;;;4.97;4.03;;;;;;;;;;5043631;28;20037;-60
2022/03/08 05:26:23;;;;;;;5.88;4.10;;;;;;;;;;5046990;28;20028;-61
2022/03/08 05:28:48;;;;;;;4.82;3.92;;;;;;;;;;5057002;28;20009;-60
2022/03/08 05:31:13;;;;;;;5.03;3.65;;;;;;;;;;5058833;28;20017;-60
2022/03/08 05:33:39;;;;;;;4.47;3.55;;;;;;;;;;5042677;28;20040;-61
2022/03/08 05:36:04;;;;;;;6.07;4.10;;;;;;;;;;5059654;28;20032;-61
2022/03/08 05:38:30;;;;;;;5.70;3.97;;;;;;;;;;5044341;28;20029;-61
2022/03/08 05:40:55;;;;;;;5.38;4.18;;;;;;;;;;5054843;28;20021;-61
2022/03/08 05:43:21;;;;;;;6.13;4.55;;;;;;;;;;5046463;28;20100;-61
2022/03/08 05:45:46;;;;;;;5.53;4.13;;;;;;;;;;5049520;28;20079;-61
2022/03/08 05:48:11;;;;;;;6.25;4.00;;;;;;;;;;5057518;28;20298;-62
2022/03/08 05:50:37;;;;;;;4.80;4.30;;;;;;;;;;5057608;28;20021;-60
2022/03/08 05:53:02;;;;;;;5.60;3.72;;;;;;;;;;5054282;28;20096;-60
2022/03/08 05:55:28;;;;;;;5.57;4.18;;;;;;;;;;5058209;28;20032;-61
2022/03/08 05:57:53;;;;;;;4.60;3.17;;;;;;;;;;5059962;28;20333;-60
2022/03/08 06:00:18;;;;;;;4.88;3.50;;;;;;;;;;5044501;28;20022;-61
2022/03/08 06:02:44;;;;;;;3.78;3.35;;;;;;;;;;5043182;28;20057;-61
2022/03/08 06:05:09;;;;;;;4.53;3.58;;;;;;;;;;5048116;28;20053;-60
2022/03/08 06:07:35;;;;;;;5.18;3.40;;;;;;;;;;5039981;28;20009;-62
2022/03/08 06:10:00;;;;;;;4.20;3.30;;;;;;;;;;5047872;28;20084;-60
2022/03/08 06:12:25;;;;;;;5.20;2.97;;;;;;;;;;5052630;28;20040;-61
2022/03/08 06:14:51;;;;;;;7.18;3.35;;;;;;;;;;5043060;28;20026;-60
2022/03/08 06:17:16;;;;;;;4.75;3.50;;;;;;;;;;5043201;28;20092;-61
2022/03/08 06:19:41;;;;;;;4.88;3.65;;;;;;;;;;5058609;28;20222;-62
2022/03/08 06:22:07;;;;;;;5.32;4.07;;;;;;;;;;5059629;28;20032;-63
2022/03/08 06:24:32;;;;;;;6.47;3.60;;;;;;;;;;5058071;28;20040;-60
2022/03/08 06:26:58;;;;;;;6.10;3.80;;;;;;;;;;5055728;28;20040;-60
2022/03/08 06:29:23;;;;;;;5.43;3.67;;;;;;;;;;5045701;28;20080;-60
2022/03/08 06:31:49;;;;;;;5.50;3.63;;;;;;;;;;5051538;28;20025;-62
2022/03/08 06:34:14;;;;;;;4.97;3.65;;;;;;;;;;5044782;28;20057;-61
2022/03/08 06:36:40;;;;;;;4.20;3.38;;;;;;;;;;5042875;28;20318;-62
2022/03/08 06:39:05;;;;;;;5.70;3.83;;;;;;;;;;5044738;28;20062;-61
2022/03/08 06:41:32;;;;;;;4.82;3.88;;;;;;;;;;5057624;28;20271;-61
2022/03/08 06:43:58;;;;;;;4.40;3.72;;;;;;;;;;5041681;28;20064;-60
2022/03/08 06:46:24;;;;;;;4.05;3.15;;;;;;;;;;5059424;28;20120;-61
2022/03/08 06:48:49;;;;;;;5.80;4.03;;;;;;;;;;5057239;28;20072;-60
2022/03/08 06:51:14;;;;;;;5.88;3.85;;;;;;;;;;5056872;28;20310;-61
2022/03/08 06:53:40;;;;;;;6.05;3.47;;;;;;;;;;5057122;28;20025;-61
2022/03/08 06:56:05;;;;;;;6.43;4.15;;;;;;;;;;5056492;28;20019;-60
2022/03/08 06:58:31;;;;;;;4.80;3.35;;;;;;;;;;5048910;28;20052;-61
2022/03/08 07:00:56;;;;;;;3.78;3.17;;;;;;;;;;5043941;28;20020;-60
2022/03/08 07:03:21;;;;;;;4.50;3.53;;;;;;;;;;5044204;28;20107;-63
2022/03/08 07:05:47;;;;;;;3.50;2.72;;;;;;;;;;5056714;28;20018;-62
2022/03/08 07:08:12;;;;;;;4.50;3.30;;;;;;;;;;5053141;28;20033;-61
2022/03/08 07:10:38;;;;;;;6.03;3.10;;;;;;;;;;5044261;28;20213;-60
2022/03/08 07:13:03;;;;;;;5.38;3.40;;;;;;;;;;5060945;28;20032;-61
2022/03/08 07:15:29;;;;;;;3.40;3.10;;;;;;;;;;5059382;28;20078;-61
2022/03/08 07:17:54;;;;;;;5.38;3.53;;;;;;;;;;5060354;28;20017;-60
2022/03/08 07:20:20;;;;;;;3.72;3.10;;;;;;;;;;5052478;28;20040;-61
2022/03/08 07:22:45;;;;;;;5.05;3.80;;;;;;;;;;5051681;28;20036;-61
2022/03/08 07:25:11;;;;;;;4.22;3.10;;;;;;;;;;5055966;28;20029;-62
2022/03/08 07:27:37;;;;;;;4.10;3.28;;;;;;;;;;5045002;28;20017;-60
2022/03/08 07:30:03;;;;;;;6.57;3.25;;;;;;;;;;5045891;28;20021;-61
2022/03/08 07:32:29;;;;;;;4.70;3.00;;;;;;;;;;5044842;28;20293;-61
2022/03/08 07:34:54;;;;;;;4.88;3.67;;;;;;;;;;5045846;28;20027;-62
2022/03/08 07:37:19;;;;;;;4.00;3.30;;;;;;;;;;5059451;28;20025;-62
2022/03/08 07:39:45;;;;;;;4.03;3.10;;;;;;;;;;5044910;28;20021;-62
2022/03/08 07:42:10;;;;;;;4.47;3.17;;;;;;;;;;5055481;28;20036;-61
2022/03/08 07:44:37;;;;;;;3.78;3.20;;;;;;;;;;5058665;28;20021;-61
2022/03/08 07:47:03;;;;;;;5.35;3.15;;;;;;;;;;5059881;28;20029;-61
2022/03/08 07:49:28;;;;;;;4.25;3.25;;;;;;;;;;5059816;28;20036;-61
2022/03/08 07:51:53;;;;;;;4.25;2.95;;;;;;;;;;5059180;28;20204;-59
2022/03/08 07:54:19;;;;;;;4.05;2.83;;;;;;;;;;5044277;28;20021;-61
2022/03/08 07:56:44;;;;;;;4.53;3.00;;;;;;;;;;5061992;28;20318;-61
2022/03/08 07:59:10;;;;;;;4.38;3.35;;;;;;;;;;5056871;28;20029;-60
2022/03/08 08:01:35;;;;;;;12.77;3.30;;;;;;;;;;5044824;28;20234;-62
2022/03/08 08:04:01;;;;;;;4.75;3.08;;;;;;;;;;5045348;28;20132;-60
2022/03/08 08:06:26;;;;;;;4.47;3.28;;;;;;;;;;5045104;28;20079;-61
2022/03/08 08:08:51;;;;;;;5.50;2.75;;;;;;;;;;5044283;28;20036;-60
2022/03/08 08:11:17;;;;;;;5.35;3.50;;;;;;;;;;5050281;28;20021;-59
2022/03/08 08:13:42;;;;;;;4.80;3.03;;;;;;;;;;5059323;28;20321;-62
2022/03/08 08:16:07;;;;;;;4.85;3.47;;;;;;;;;;5059165;28;20080;-61
2022/03/08 08:18:33;;;;;;;5.22;3.20;;;;;;;;;;5060049;28;20013;-62
2022/03/08 08:21:01;;;;;;;4.57;3.28;;;;;;;;;;5061570;28;20028;-61
2022/03/08 08:23:26;;;;;;;4.93;3.28;;;;;;;;;;5044865;28;20025;-61
2022/03/08 08:25:51;;;;;;;4.43;3.20;;;;;;;;;;5058591;28;20031;-62
2022/03/08 08:28:17;;;;;;;3.90;3.10;;;;;;;;;;5056433;28;20329;-62
2022/03/08 08:30:42;;;;;;;5.82;3.80;;;;;;;;;;5054237;28;20028;-61
2022/03/08 08:33:07;;;;;;;4.97;3.35;;;;;;;;;;5049595;28;20041;-60
2022/03/08 08:35:33;;;;;;;4.07;3.33;;;;;;;;;;5049234;28;20100;-60
2022/03/08 08:37:58;;;;;;;5.22;3.35;;;;;;;;;;5054941;28;20036;-61
2022/03/08 08:40:24;;;;;;;4.18;3.20;;;;;;;;;;5044943;28;20055;-60
2022/03/08 08:42:49;;;;;;;5.07;3.55;;;;;;;;;;5059632;28;20264;-62
2022/03/08 08:45:15;;;;;;;5.32;3.70;;;;;;;;;;5044662;28;20045;-61
2022/03/08 08:47:40;;;;;;;6.75;3.67;;;;;;;;;;5059436;28;20088;-61
2022/03/08 08:50:06;;;;;;;4.30;3.40;;;;;;;;;;5040501;28;20318;-61
2022/03/08 08:52:31;;;;;;;6.20;3.97;;;;;;;;;;5045846;28;20032;-61
2022/03/08 08:54:57;;;;;;;4.88;3.42;;;;;;;;;;5053147;28;20033;-61
2022/03/08 08:57:22;;;;;;;4.68;3.50;;;;;;;;;;5058086;28;20366;-62
2022/03/08 08:59:48;;;;;;;3.83;3.03;;;;;;;;;;5057828;28;20025;-62
2022/03/08 09:02:13;;;;;;;4.38;3.55;;;;;;;;;;5055723;28;20112;-62
2022/03/08 09:04:38;;;;;;;5.13;3.72;;;;;;;;;;5043326;28;20063;-61
2022/03/08 09:07:04;;;;;;;6.28;3.65;;;;;;;;;;5059676;28;20029;-61
2022/03/08 09:09:30;;;;;;;5.05;3.80;;;;;;;;;;5046787;28;20206;-62
2022/03/08 09:11:55;;;;;;;5.05;4.22;;;;;;;;;;5043743;28;20039;-61
2022/03/08 09:14:20;;;;;;;5.18;3.80;;;;;;;;;;5055282;28;20317;-62
2022/03/08 09:16:46;;;;;;;5.55;4.00;;;;;;;;;;5057446;28;20209;-62
2022/03/08 09:19:11;;;;;;;5.88;4.10;;;;;;;;;;5057479;28;20016;-60
2022/03/08 09:21:37;;;;;;;6.22;4.07;;;;;;;;;;5057248;28;20029;-61
2022/03/08 09:24:03;;;;;;;6.03;4.05;;;;;;;;;;5053927;28;20017;-61
2022/03/08 09:26:28;;;;;;;6.35;4.60;;;;;;;;;;5044812;28;20077;-62
2022/03/08 09:28:53;;;;;;;5.70;4.30;;;;;;;;;;5054911;28;20018;-63
2022/03/08 09:31:19;;;;;;;5.65;3.92;;;;;;;;;;5059619;28;20052;-60
2022/03/08 09:33:44;;;;;;;5.20;3.92;;;;;;;;;;5045991;28;20021;-61
2022/03/08 09:36:10;;;;;;;6.05;3.90;;;;;;;;;;5043005;28;20020;-62
2022/03/08 09:38:35;;;;;;;6.47;4.20;;;;;;;;;;5045644;28;20029;-61
2022/03/08 09:41:02;;;;;;;9.80;4.72;;;;;;;;;;5053157;28;20025;-62
2022/03/08 09:43:28;;;;;;;5.85;3.95;;;;;;;;;;5057075;28;20032;-62
2022/03/08 09:45:54;;;;;;;4.78;4.07;;;;;;;;;;5051072;28;20043;-62
2022/03/08 09:48:19;;;;;;;4.88;3.92;;;;;;;;;;5043191;28;20021;-61
2022/03/08 09:50:45;;;;;;;5.18;3.85;;;;;;;;;;5057873;28;20321;-61
2022/03/08 09:53:11;;;;;;;4.63;3.50;;;;;;;;;;5042311;28;20033;-63
2022/03/08 09:55:36;;;;;;;5.00;4.00;;;;;;;;;;5059522;28;20084;-61
2022/03/08 09:58:02;;;;;;;6.47;4.57;;;;;;;;;;5059969;28;20028;-62
2022/03/08 10:00:28;;;;;;;4.85;4.00;;;;;;;;;;5042793;28;20017;-62
2022/03/08 10:02:57;;;;;;;5.93;3.80;;;;;;;;;;5055449;28;20048;-62
2022/03/08 10:05:26;;;;;;;6.75;4.60;;;;;;;;;;5057260;28;20229;-61
2022/03/08 10:08:13;;;;;;;7.00;3.90;;;;;;;;;;5042779;28;20022;-62
2022/03/08 10:11:00;;;;;;;5.88;3.97;;;;;;;;;;5048152;28;20213;-60
2022/03/08 10:13:28;;;;;;;5.57;4.10;;;;;;;;;;5057391;28;20055;-62
2022/03/08 10:16:12;;;;;;;5.05;3.78;;;;;;;;;;5057349;28;20084;-61
2022/03/08 10:18:48;;;;;;;5.97;3.72;;;;;;;;;;5048565;28;20021;-62
2022/03/08 10:21:25;;;;;;;5.72;3.78;;;;;;;;;;5051175;28;20024;-61
2022/03/08 10:23:52;;;;;;;5.35;3.70;;;;;;;;;;5050106;28;20024;-62
2022/03/08 10:26:18;;;;;;;5.57;4.15;;;;;;;;;;5048130;28;20047;-63
2022/03/08 10:28:47;;;;;;;6.35;4.32;;;;;;;;;;5055585;28;20283;-62
2022/03/08 10:31:14;;;;;;;5.13;3.67;;;;;;;;;;5056475;28;20084;-62
2022/03/08 10:33:39;;;;;;;6.38;4.47;;;;;;;;;;5048463;28;20021;-62
2022/03/08 10:36:10;;;;;;;9.35;5.03;;;;;;;;;;5058597;28;20017;-61
2022/03/08 10:38:36;;;;;;;7.05;4.60;;;;;;;;;;5043267;28;20322;-61
2022/03/08 10:41:15;;;;;;;5.82;4.25;;;;;;;;;;5058287;28;20135;-62
2022/03/08 10:43:48;;;;;;;7.00;4.70;;;;;;;;;;5041394;28;20100;-64
2022/03/08 10:46:17;;;;;;;8.35;5.13;;;;;;;;;;5046460;28;20077;-62
2022/03/08 10:48:42;;;;;;;6.72;4.88;;;;;;;;;;5061215;28;20542;-62
2022/03/08 10:51:14;;;;;;;10.07;4.43;;;;;;;;;;5056344;28;20045;-64
2022/03/08 10:53:40;;;;;;;5.88;4.55;;;;;;;;;;5059705;28;20029;-62
2022/03/08 10:56:07;;;;;;;7.65;4.30;;;;;;;;;;5060482;28;20043;-63
2022/03/08 10:58:32;;;;;;;6.45;4.25;;;;;;;;;;5050388;28;20044;-62
2022/03/08 11:00:59;;;;;;;6.57;4.30;;;;;;;;;;5049061;28;20021;-62
2022/03/08 11:03:25;;;;;;;6.22;4.10;;;;;;;;;;5060508;28;20052;-63
2022/03/08 11:05:55;;;;;;;6.30;4.30;;;;;;;;;;5061025;28;20025;-62
2022/03/08 11:08:21;;;;;;;5.97;4.00;;;;;;;;;;5053558;28;20013;-63
2022/03/08 11:10:46;;;;;;;6.43;3.67;;;;;;;;;;5061224;28;20060;-63
2022/03/08 11:13:13;;;;;;;5.78;4.00;;;;;;;;;;5060611;28;20032;-62
2022/03/08 11:15:39;;;;;;;5.28;3.67;;;;;;;;;;5060309;28;20084;-62
2022/03/08 11:18:06;;;;;;;4.78;3.78;;;;;;;;;;5060241;28;20028;-62
2022/03/08 11:20:31;;;;;;;8.38;4.10;;;;;;;;;;5060203;28;20032;-63
2022/03/08 11:22:58;;;;;;;5.95;4.22;;;;;;;;;;5052943;28;20021;-62
2022/03/08 11:25:25;;;;;;;6.35;4.60;;;;;;;;;;5048250;28;20036;-63
2022/03/08 11:27:50;;;;;;;8.35;4.80;;;;;;;;;;5059952;28;20005;-62
2022/03/08 11:30:17;;;;;;;6.15;4.40;;;;;;;;;;5045274;28;20527;-62
2022/03/08 11:32:43;;;;;;;6.18;4.63;;;;;;;;;;5045487;28;20018;-63
2022/03/08 11:35:11;;;;;;;5.88;4.45;;;;;;;;;;5046263;28;20017;-63
2022/03/08 11:37:39;;;;;;;7.35;4.20;;;;;;;;;;5060101;28;20645;-61
2022/03/08 11:40:17;;;;;;;5.38;4.10;;;;;;;;;;5058229;28;20033;-62
2022/03/08 11:42:47;;;;;;;4.95;3.90;;;;;;;;;;5052824;28;20096;-62
2022/03/08 11:45:17;;;;;;;6.82;4.32;;;;;;;;;;5054727;28;20032;-62
2022/03/08 11:47:46;;;;;;;6.38;3.75;;;;;;;;;;5051517;28;20029;-62
2022/03/08 11:50:23;;;;;;;8.23;4.25;;;;;;;;;;5052106;28;20023;-62
2022/03/08 11:53:06;;;;;;;6.82;4.50;;;;;;;;;;5059926;28;20017;-62
2022/03/08 11:55:56;;;;;;;5.93;4.20;;;;;;;;;;5052039;28;20019;-61
2022/03/08 11:58:39;;;;;;;7.63;4.00;;;;;;;;;;5044575;28;20088;-64
2022/03/08 12:01:05;;;;;;;5.38;3.83;;;;;;;;;;5052494;28;20020;-62
2022/03/08 12:03:33;;;;;;;4.53;3.53;;;;;;;;;;5059458;28;20322;-63
2022/03/08 12:05:58;;;;;;;3.97;3.38;;;;;;;;;;5056310;28;20037;-62
2022/03/08 12:08:29;;;;;;;5.47;4.07;;;;;;;;;;5042043;28;20029;-61
2022/03/08 12:11:00;;;;;;;7.05;4.03;;;;;;;;;;5045192;28;20044;-62
2022/03/08 12:13:39;;;;;;;5.10;3.83;;;;;;;;;;5060955;28;20271;-60
2022/03/08 12:16:11;;;;;;;5.72;3.97;;;;;;;;;;5027474;28;20234;-62
2022/03/08 12:18:46;;;;;;;5.35;4.15;;;;;;;;;;5044110;28;20068;-61
2022/03/08 12:21:14;;;;;;;7.13;4.35;;;;;;;;;;5043961;28;20107;-63
2022/03/08 12:23:55;;;;;;;5.38;4.28;;;;;;;;;;5044982;28;20326;-62
2022/03/08 12:26:31;;;;;;;5.22;3.95;;;;;;;;;;5044400;28;20032;-63
2022/03/08 12:29:15;;;;;;;5.78;4.57;;;;;;;;;;5043823;28;20032;-62
2022/03/08 12:31:58;;;;;;;5.32;4.35;;;;;;;;;;5043006;28;20364;-62
2022/03/08 12:34:32;;;;;;;6.97;4.18;;;;;;;;;;5044362;28;20029;-62
2022/03/08 12:37:02;;;;;;;6.05;4.03;;;;;;;;;;5055415;28;20047;-62
2022/03/08 12:39:51;;;;;;;5.78;3.80;;;;;;;;;;5053954;28;20017;-61
2022/03/08 12:42:17;;;;;;;4.72;3.50;;;;;;;;;;5039039;28;20322;-61
2022/03/08 12:44:55;;;;;;;6.63;4.50;;;;;;;;;;5043191;28;20036;-60
2022/03/08 12:47:20;;;;;;;5.38;3.63;;;;;;;;;;5054782;28;20182;-62
2022/03/08 12:49:47;;;;;;;6.10;4.05;;;;;;;;;;5050559;28;20026;-61
2022/03/08 12:52:16;;;;;;;6.80;4.65;;;;;;;;;;5047370;28;20122;-62
2022/03/08 12:54:42;;;;;;;8.13;4.05;;;;;;;;;;5048460;28;20009;-62
2022/03/08 12:57:10;;;;;;;6.22;4.00;;;;;;;;;;5056546;28;20025;-63
2022/03/08 12:59:42;;;;;;;5.90;4.05;;;;;;;;;;5044195;28;20059;-63
2022/03/08 13:02:08;;;;;;;6.10;3.90;;;;;;;;;;5059567;28;20225;-61
2022/03/08 13:04:33;;;;;;;5.20;3.80;;;;;;;;;;5043112;28;20053;-62
2022/03/08 13:07:12;;;;;;;6.93;4.00;;;;;;;;;;5033528;28;20025;-61
2022/03/08 13:09:47;;;;;;;4.75;3.80;;;;;;;;;;5041704;28;20033;-63
2022/03/08 13:12:24;;;;;;;6.85;4.00;;;;;;;;;;5040609;28;20009;-61
2022/03/08 13:15:05;;;;;;;7.10;4.40;;;;;;;;;;5041648;28;20028;-65
2022/03/08 13:17:31;;;;;;;6.32;4.60;;;;;;;;;;5057211;28;20029;-61
2022/03/08 13:19:57;;;;;;;8.00;4.75;;;;;;;;;;5056987;28;20087;-63
2022/03/08 13:22:22;;;;;;;7.50;5.10;;;;;;;;;;5057346;28;20067;-61
2022/03/08 13:25:05;;;;;;;5.70;4.30;;;;;;;;;;5045008;28;20056;-61
2022/03/08 13:27:47;;;;;;;5.85;4.53;;;;;;;;;;5039781;28;20018;-62
2022/03/08 13:30:19;;;;;;;6.55;3.80;;;;;;;;;;5039916;28;20305;-63
2022/03/08 13:32:45;;;;;;;6.25;4.22;;;;;;;;;;5040321;28;20310;-62
2022/03/08 13:35:10;;;;;;;5.70;4.38;;;;;;;;;;5042390;28;20051;-62
2022/03/08 13:37:48;;;;;;;6.40;4.40;;;;;;;;;;5041968;28;20048;-61
2022/03/08 13:40:33;;;;;;;6.95;4.57;;;;;;;;;;5041602;28;20244;-61
2022/03/08 13:42:59;;;;;;;7.05;4.45;;;;;;;;;;5040451;28;20191;-63
2022/03/08 13:45:25;;;;;;;5.88;4.50;;;;;;;;;;5042639;28;20021;-60
2022/03/08 13:47:58;;;;;;;6.15;4.53;;;;;;;;;;5042882;28;20056;-61
2022/03/08 13:50:25;;;;;;;5.53;3.95;;;;;;;;;;5042610;28;20033;-61
2022/03/08 13:53:05;;;;;;;6.22;4.20;;;;;;;;;;5042970;28;20094;-61
2022/03/08 13:55:30;;;;;;;7.82;4.72;;;;;;;;;;5041626;28;20036;-61
2022/03/08 13:58:00;;;;;;;5.80;4.60;;;;;;;;;;5041638;28;20084;-61
2022/03/08 14:00:30;;;;;;;6.47;4.53;;;;;;;;;;5052257;28;20024;-61
2022/03/08 14:02:56;;;;;;;9.15;4.80;;;;;;;;;;5045273;28;20056;-61
2022/03/08 14:05:22;;;;;;;6.88;4.72;;;;;;;;;;5040366;28;20021;-60
2022/03/08 14:07:57;;;;;;;6.90;4.70;;;;;;;;;;5040413;28;20018;-61
2022/03/08 14:10:24;;;;;;;12.40;5.05;;;;;;;;;;5045120;28;20021;-62
2022/03/08 14:12:50;;;;;;;8.88;4.90;;;;;;;;;;5055987;28;20021;-63
2022/03/08 14:15:17;;;;;;;6.50;4.03;;;;;;;;;;5055989;28;20037;-61
2022/03/08 14:17:43;;;;;;;6.00;4.38;;;;;;;;;;5043199;28;20062;-60
2022/03/08 14:20:19;;;;;;;9.45;4.50;;;;;;;;;;5046083;28;20314;-62
2022/03/08 14:22:58;;;;;;;6.97;4.82;;;;;;;;;;5063891;28;20035;-61
2022/03/08 14:25:23;;;;;;;5.85;4.63;;;;;;;;;;5063374;28;20032;-61
2022/03/08 14:27:49;;;;;;;5.03;3.92;;;;;;;;;;5062191;28;20127;-60
2022/03/08 14:30:19;;;;;;;9.13;4.80;;;;;;;;;;5061177;28;20028;-61
2022/03/08 14:32:45;;;;;;;8.88;5.30;;;;;;;;;;5055098;28;20033;-60
2022/03/08 14:35:15;;;;;;;8.32;4.68;;;;;;;;;;5040539;28;20092;-60
2022/03/08 14:37:41;;;;;;;7.93;4.78;;;;;;;;;;5044594;28;20089;-61
2022/03/08 14:40:07;;;;;;;7.40;4.88;;;;;;;;;;5045940;28;20017;-61
2022/03/08 14:42:36;;;;;;;6.20;4.20;;;;;;;;;;5045425;28;20030;-60